createdAt,value
2022-11-07T00:06:53.412Z,98745.81
2022-11-07T00:16:54.807Z,98741.69
2022-11-07T00:26:59.342Z,98751.78
2022-11-07T00:37:02.193Z,98755.06
2022-11-07T00:47:03.569Z,98769.69
2022-11-07T00:57:04.943Z,98780.78
2022-11-07T01:07:06.841Z,98777.69
2022-11-07T01:17:08.211Z,98781.38
2022-11-07T01:27:09.760Z,98778.50
2022-11-07T01:37:11.399Z,98771.09
2022-11-07T01:47:12.897Z,98779.13
2022-11-07T01:57:17.787Z,98787.53
2022-11-07T02:07:20.645Z,98773.13
2022-11-07T02:17:22.025Z,98766.97
2022-11-07T02:27:24.535Z,98766.31
2022-11-07T02:37:38.539Z,98772.50
2022-11-07T02:47:39.916Z,98777.44
2022-11-07T02:57:41.430Z,98780.31
2022-11-07T03:07:43.550Z,98784.44
2022-11-07T03:17:44.920Z,98792.69
2022-11-07T03:27:47.527Z,98795.38
2022-11-07T03:37:49.611Z,98796.38
2022-11-07T03:47:51.027Z,98801.31
2022-11-07T03:57:52.520Z,98799.66
2022-11-07T04:07:53.888Z,98804.00
2022-11-07T04:17:55.323Z,98809.34
2022-11-07T04:27:56.711Z,98813.88
2022-11-07T04:37:58.824Z,98808.34
2022-11-07T04:48:00.226Z,98808.50
2022-11-07T04:58:01.599Z,98806.84
2022-11-07T05:08:03.057Z,98813.44
2022-11-07T05:18:04.496Z,98805.81
2022-11-07T05:28:06.098Z,98807.66
2022-11-07T05:38:07.547Z,98821.25
2022-11-07T05:48:10.945Z,98821.25
2022-11-07T05:58:12.502Z,98826.59
2022-11-07T06:08:14.091Z,98832.59
2022-11-07T06:18:17.167Z,98829.06
2022-11-07T06:28:18.533Z,98837.97
2022-11-07T06:38:20.690Z,98847.44
2022-11-07T06:48:22.267Z,98851.13
2022-11-07T06:58:23.685Z,98852.38
2022-11-07T07:08:25.197Z,98865.41
2022-11-07T07:18:26.886Z,98864.16
2022-11-07T07:28:28.456Z,98871.00
2022-11-07T07:38:29.938Z,98880.09
2022-11-07T07:48:31.494Z,98886.91
2022-11-07T07:58:33.054Z,98888.59
2022-11-07T08:08:38.223Z,98898.41
2022-11-07T08:18:40.763Z,98911.34
2022-11-07T08:28:42.215Z,98922.59
2022-11-07T08:38:43.580Z,98922.88
2022-11-07T08:48:44.954Z,98929.94
2022-11-07T08:58:46.346Z,98931.44
2022-11-07T09:08:47.771Z,98932.72
2022-11-07T09:18:49.611Z,98940.38
2022-11-07T09:28:53.166Z,98946.16
2022-11-07T09:38:59.244Z,98953.19
2022-11-07T09:49:19.524Z,98960.03
2022-11-07T09:59:29.968Z,98966.00
2022-11-07T10:09:58.677Z,98976.75
2022-11-07T10:20:25.382Z,98978.81
2022-11-07T10:30:26.991Z,98994.47
2022-11-07T10:40:33.648Z,98984.97
2022-11-07T10:50:35.172Z,98977.31
2022-11-07T11:00:39.256Z,98982.09
2022-11-07T11:10:40.702Z,98967.25
2022-11-07T11:20:46.024Z,98958.78
2022-11-07T11:30:47.411Z,98963.53
2022-11-07T11:40:52.059Z,98947.19
2022-11-07T11:50:57.129Z,98963.09
2022-11-07T12:01:03.849Z,98968.06
2022-11-07T12:11:22.076Z,98949.28
2022-11-07T12:21:35.473Z,98948.47
2022-11-07T12:32:08.174Z,98937.09
2022-11-07T12:42:15.563Z,98942.06
2022-11-07T12:52:35.913Z,98944.31
2022-11-07T13:02:40.223Z,98933.38
2022-11-07T13:13:04.868Z,98951.16
2022-11-07T13:23:14.688Z,98937.28
2022-11-07T13:33:28.016Z,98933.16
2022-11-07T13:43:58.313Z,98946.41
2022-11-07T13:54:28.490Z,98953.00
2022-11-07T14:04:29.912Z,98950.06
2022-11-07T14:14:31.309Z,98953.38
2022-11-07T14:24:32.782Z,98952.56
2022-11-07T14:34:34.846Z,98957.91
2022-11-07T14:44:53.720Z,98961.41
2022-11-07T14:55:20.333Z,98964.88
2022-11-07T15:05:25.680Z,98954.75
2022-11-07T15:15:30.324Z,98953.50
2022-11-07T15:25:39.953Z,98949.75
2022-11-07T15:35:44.443Z,98942.53
2022-11-07T15:45:47.596Z,98960.88
2022-11-07T15:55:54.068Z,98962.72
2022-11-07T16:05:57.445Z,98976.75
2022-11-07T16:16:00.207Z,98988.06
2022-11-07T16:26:01.774Z,98988.47
2022-11-07T16:36:18.118Z,98991.16
2022-11-07T16:46:21.189Z,99002.91
2022-11-07T16:56:24.842Z,99006.41
2022-11-07T17:06:33.100Z,99005.16
2022-11-07T17:16:36.434Z,99004.78
2022-11-07T17:26:38.754Z,99009.28
2022-11-07T17:36:45.872Z,99013.22
2022-11-07T17:46:48.673Z,99015.03
2022-11-07T17:56:50.303Z,99028.91
2022-11-07T18:06:51.695Z,99021.47
2022-11-07T18:16:53.163Z,99028.91
2022-11-07T18:26:54.598Z,99030.13
2022-11-07T18:36:56.140Z,99028.06
2022-11-07T18:46:57.545Z,99026.41
2022-11-07T18:56:59.200Z,99018.56
2022-11-07T19:07:00.598Z,99015.03
2022-11-07T19:17:02.147Z,99016.28
2022-11-07T19:27:03.562Z,99019.97
2022-11-07T19:37:05.087Z,99023.91
2022-11-07T19:47:06.487Z,99022.25
2022-11-07T19:57:08.309Z,99022.44
2022-11-07T20:07:09.792Z,99027.81
2022-11-07T20:17:11.174Z,99015.41
2022-11-07T20:27:13.582Z,99027.13
2022-11-07T20:37:20.638Z,99024.44
2022-11-07T20:47:23.142Z,99025.69
2022-11-07T20:57:25.832Z,99023.59
2022-11-07T21:07:27.244Z,99029.16
2022-11-07T21:17:28.642Z,99035.34
2022-11-07T21:27:36.003Z,99027.50
2022-11-07T21:37:37.387Z,99036.75
2022-11-07T21:47:44.714Z,99022.50
2022-11-07T21:57:47.168Z,99021.06
2022-11-07T22:07:48.636Z,99002.94
2022-11-07T22:17:50.069Z,98989.69
2022-11-07T22:27:51.445Z,98984.34
2022-11-07T22:37:53.011Z,98988.88
2022-11-07T22:47:54.397Z,98984.53
2022-11-07T22:57:56.148Z,98971.13
2022-11-07T23:07:57.683Z,98973.38
2022-11-07T23:17:59.149Z,98972.75
2022-11-07T23:28:00.569Z,98960.56
2022-11-07T23:38:01.950Z,98960.16
2022-11-07T23:48:21.970Z,98964.66
2022-11-07T23:58:41.767Z,98955.16
